Time;durP1;ratioP1;P1;durP2;ratioP2;P2;SDS_P1;SDS_P2;PMS_P1;PMS_P2;Temp;Humidity;BMP_temperature;BMP_pressure;BME280_temperature;BME280_humidity;BME280_pressure;Samples;Min_cycle;Max_cycle;Signal;HPM_P1;HPM_P2
2023/09/16 00:02:16;;;;;;;19.50;15.73;;;13.80;99.90;;;;;;4991291;28;20033;-86
2023/09/16 00:04:41;;;;;;;23.13;17.25;;;13.80;99.90;;;;;;4991819;28;20025;-86
2023/09/16 00:07:07;;;;;;;18.75;14.88;;;13.70;99.90;;;;;;4983697;28;20129;-87
2023/09/16 00:09:33;;;;;;;20.95;15.25;;;13.80;99.90;;;;;;4965727;28;20026;-87
2023/09/16 00:11:59;;;;;;;20.65;15.73;;;13.70;99.90;;;;;;4970912;28;20038;-87
2023/09/16 00:14:25;;;;;;;19.48;15.23;;;13.70;99.90;;;;;;4980791;28;20035;-86
2023/09/16 00:16:52;;;;;;;24.65;17.92;;;13.60;99.90;;;;;;4991242;28;20442;-87
2023/09/16 00:19:18;;;;;;;22.70;17.83;;;13.60;99.90;;;;;;4991303;28;20411;-87
2023/09/16 00:21:45;;;;;;;22.88;17.88;;;13.60;99.90;;;;;;4992446;28;20030;-87
2023/09/16 00:24:11;;;;;;;24.52;19.25;;;13.60;99.90;;;;;;4981450;28;20030;-87
2023/09/16 00:26:39;;;;;;;23.88;19.15;;;13.60;99.90;;;;;;4989079;28;20398;-87
2023/09/16 00:29:05;;;;;;;26.25;19.80;;;13.70;99.90;;;;;;4974447;28;20084;-87
2023/09/16 00:31:30;;;;;;;29.98;21.77;;;13.70;99.90;;;;;;4990250;28;20529;-87
2023/09/16 00:33:56;;;;;;;27.00;21.33;;;13.70;99.90;;;;;;4973873;28;20510;-86
2023/09/16 00:36:21;;;;;;;25.60;19.08;;;13.70;99.90;;;;;;4991808;28;20120;-86
2023/09/16 00:38:47;;;;;;;23.67;18.75;;;13.80;99.90;;;;;;4992531;28;20062;-87
2023/09/16 00:41:13;;;;;;;26.77;19.95;;;13.80;99.90;;;;;;4992621;28;20494;-87
2023/09/16 00:43:39;;;;;;;24.55;19.17;;;13.80;99.90;;;;;;4988778;28;20723;-86
2023/09/16 00:46:04;;;;;;;26.52;19.13;;;13.80;99.90;;;;;;4990144;28;20026;-87
2023/09/16 00:48:30;;;;;;;23.85;19.60;;;13.80;99.90;;;;;;4993343;28;20102;-86
2023/09/16 00:50:56;;;;;;;28.85;21.42;;;13.90;99.90;;;;;;4992388;28;20037;-86
2023/09/16 00:53:22;;;;;;;23.08;19.20;;;13.90;99.90;;;;;;4992032;28;20033;-86
2023/09/16 00:55:48;;;;;;;29.73;21.50;;;13.90;99.90;;;;;;4990595;28;20042;-87
2023/09/16 00:58:17;;;;;;;27.13;19.98;;;13.90;99.90;;;;;;4991219;28;20491;-87
2023/09/16 01:00:44;;;;;;;26.50;20.45;;;13.90;99.90;;;;;;4974620;28;20038;-87
2023/09/16 01:03:09;;;;;;;36.25;22.40;;;13.90;99.90;;;;;;4992414;28;20029;-87
2023/09/16 01:05:35;;;;;;;25.23;20.92;;;14.00;99.90;;;;;;4991742;28;20117;-87
2023/09/16 01:08:01;;;;;;;26.10;20.73;;;14.00;99.90;;;;;;4991957;28;20023;-87
2023/09/16 01:10:27;;;;;;;27.42;22.90;;;14.00;99.90;;;;;;4988743;28;20029;-87
2023/09/16 01:12:54;;;;;;;32.50;22.88;;;14.00;99.90;;;;;;4987762;28;20055;-86
2023/09/16 01:15:22;;;;;;;31.88;22.30;;;14.00;99.90;;;;;;4988434;28;20030;-87
2023/09/16 01:18:07;;;;;;;28.95;23.38;;;14.00;99.90;;;;;;4961009;28;20030;-87
2023/09/16 01:20:33;;;;;;;27.27;21.27;;;14.00;99.90;;;;;;4964426;28;20107;-87
2023/09/16 01:22:59;;;;;;;27.98;22.10;;;13.90;99.90;;;;;;4987289;28;20033;-86
2023/09/16 01:25:29;;;;;;;28.92;22.08;;;13.90;99.90;;;;;;4988292;28;20038;-87
2023/09/16 01:27:54;;;;;;;27.02;21.65;;;13.90;99.90;;;;;;4972025;28;20410;-86
2023/09/16 01:30:21;;;;;;;29.90;23.10;;;13.90;99.90;;;;;;4987708;28;20499;-87
2023/09/16 01:33:09;;;;;;;32.95;21.90;;;13.90;99.90;;;;;;4987260;28;20027;-86
2023/09/16 01:35:38;;;;;;;30.52;24.48;;;13.90;99.90;;;;;;4986287;28;20031;-87
2023/09/16 01:38:06;;;;;;;28.15;23.27;;;13.90;99.90;;;;;;4988099;28;20479;-86
2023/09/16 01:40:33;;;;;;;32.95;24.90;;;13.80;99.90;;;;;;4987631;28;20043;-87
2023/09/16 01:42:59;;;;;;;31.45;24.23;;;13.80;99.90;;;;;;4982468;28;20031;-86
2023/09/16 01:45:25;;;;;;;30.92;24.88;;;13.70;99.90;;;;;;4987004;28;20023;-86
2023/09/16 01:47:51;;;;;;;29.92;22.73;;;13.80;99.90;;;;;;4986538;28;20026;-86
2023/09/16 01:50:16;;;;;;;31.38;24.60;;;13.80;99.90;;;;;;4987439;28;20117;-87
2023/09/16 01:52:42;;;;;;;28.70;22.83;;;13.70;99.90;;;;;;4987246;28;20510;-87
2023/09/16 01:55:08;;;;;;;30.30;24.85;;;13.70;99.90;;;;;;4986824;28;20031;-86
2023/09/16 01:57:33;;;;;;;32.38;24.05;;;13.70;99.90;;;;;;4963238;28;20081;-86
2023/09/16 01:59:59;;;;;;;31.83;24.98;;;13.70;99.90;;;;;;4970593;28;20486;-87
2023/09/16 02:02:24;;;;;;;27.88;23.05;;;13.60;99.90;;;;;;4988176;28;20114;-86
2023/09/16 02:04:50;;;;;;;30.58;22.83;;;13.60;99.90;;;;;;4986584;28;20030;-85
2023/09/16 02:07:15;;;;;;;29.27;23.95;;;13.60;99.90;;;;;;4987678;28;20541;-86
2023/09/16 02:09:41;;;;;;;31.27;24.73;;;13.60;99.90;;;;;;4981224;28;20019;-86
2023/09/16 02:12:07;;;;;;;31.17;23.88;;;13.60;99.90;;;;;;4989579;28;20066;-85
2023/09/16 02:14:37;;;;;;;33.60;24.33;;;13.60;99.90;;;;;;4992595;28;20073;-86
2023/09/16 02:17:04;;;;;;;30.27;23.83;;;13.60;99.90;;;;;;4991118;28;20478;-86
2023/09/16 02:19:32;;;;;;;33.65;25.77;;;13.60;99.90;;;;;;4993993;28;20026;-86
2023/09/16 02:21:58;;;;;;;33.03;25.15;;;13.60;99.90;;;;;;4994540;28;20553;-86
2023/09/16 02:24:23;;;;;;;27.30;22.70;;;13.60;99.90;;;;;;4994366;28;20022;-86
2023/09/16 02:26:49;;;;;;;29.13;23.70;;;13.60;99.90;;;;;;4993781;28;20053;-85
2023/09/16 02:29:14;;;;;;;34.28;24.77;;;13.60;99.90;;;;;;4994730;28;20058;-86
2023/09/16 02:31:39;;;;;;;32.15;23.90;;;13.50;99.90;;;;;;4993716;28;20092;-86
2023/09/16 02:34:05;;;;;;;34.90;24.77;;;13.60;99.90;;;;;;4993706;28;20034;-86
2023/09/16 02:36:30;;;;;;;27.92;23.95;;;13.60;99.90;;;;;;4977729;28;20038;-86
2023/09/16 02:38:56;;;;;;;31.70;24.02;;;13.60;99.90;;;;;;4993232;28;20613;-86
2023/09/16 02:41:22;;;;;;;33.90;25.42;;;13.70;99.90;;;;;;4988737;28;20034;-86
2023/09/16 02:43:47;;;;;;;39.55;27.83;;;13.60;99.90;;;;;;4994194;28;20022;-87
2023/09/16 02:46:13;;;;;;;36.95;26.23;;;13.60;99.90;;;;;;4992840;28;20029;-86
2023/09/16 02:48:39;;;;;;;32.17;23.05;;;13.60;99.90;;;;;;4995195;28;20031;-86
2023/09/16 02:51:09;;;;;;;39.08;25.95;;;13.60;99.90;;;;;;4992633;28;20046;-85
2023/09/16 02:53:35;;;;;;;35.33;24.45;;;13.50;99.90;;;;;;4976647;28;20487;-86
2023/09/16 02:56:01;;;;;;;33.42;26.52;;;13.50;99.90;;;;;;4992807;28;20034;-86
2023/09/16 02:58:26;;;;;;;32.83;26.08;;;13.50;99.90;;;;;;4992576;28;20392;-86
2023/09/16 03:00:51;;;;;;;31.40;25.00;;;13.50;99.90;;;;;;4990664;28;20027;-87
2023/09/16 03:03:17;;;;;;;34.65;25.25;;;13.40;99.90;;;;;;4993334;28;20372;-86
2023/09/16 03:05:45;;;;;;;31.83;25.85;;;13.40;99.90;;;;;;4990387;28;20483;-86
2023/09/16 03:08:12;;;;;;;31.65;24.58;;;13.30;99.90;;;;;;4989617;28;20516;-86
2023/09/16 03:10:37;;;;;;;35.03;25.63;;;13.30;99.90;;;;;;4990901;28;20076;-87
2023/09/16 03:13:03;;;;;;;32.55;25.27;;;13.30;99.90;;;;;;4991573;28;20054;-87
2023/09/16 03:15:28;;;;;;;34.17;26.08;;;13.30;99.90;;;;;;4993714;28;20037;-86
2023/09/16 03:17:54;;;;;;;35.08;25.00;;;13.30;99.90;;;;;;4986197;28;20113;-86
2023/09/16 03:20:19;;;;;;;35.75;26.98;;;13.20;99.90;;;;;;4993456;28;20031;-87
2023/09/16 03:22:45;;;;;;;35.42;24.73;;;13.20;99.90;;;;;;4991534;28;20022;-87
2023/09/16 03:25:11;;;;;;;28.42;23.88;;;13.10;99.90;;;;;;4980799;28;20027;-87
2023/09/16 03:27:37;;;;;;;31.85;24.90;;;13.10;99.90;;;;;;4992459;28;20050;-87
2023/09/16 03:30:03;;;;;;;35.67;28.08;;;13.10;99.90;;;;;;4991975;28;20023;-87
2023/09/16 03:32:29;;;;;;;37.00;27.88;;;13.20;99.90;;;;;;4992989;28;20038;-87
2023/09/16 03:34:55;;;;;;;40.15;29.92;;;13.20;99.90;;;;;;4973751;28;20045;-87
2023/09/16 03:37:20;;;;;;;33.38;25.50;;;13.20;99.90;;;;;;4961030;28;20038;-86
2023/09/16 03:39:46;;;;;;;33.00;26.10;;;13.20;99.90;;;;;;4979049;28;20031;-86
2023/09/16 03:42:12;;;;;;;33.90;25.92;;;13.20;99.90;;;;;;4973405;28;20018;-87
2023/09/16 03:44:37;;;;;;;32.85;25.50;;;13.20;99.90;;;;;;4991615;28;20022;-86
2023/09/16 03:47:03;;;;;;;34.30;26.65;;;13.20;99.90;;;;;;4972805;28;20085;-87
2023/09/16 03:49:29;;;;;;;31.55;25.17;;;13.20;99.90;;;;;;4991490;28;20548;-87
2023/09/16 03:51:55;;;;;;;36.90;28.38;;;13.20;99.90;;;;;;4986376;28;20034;-87
2023/09/16 03:54:20;;;;;;;35.65;27.83;;;13.20;99.90;;;;;;4974430;28;20391;-86
2023/09/16 03:56:46;;;;;;;31.30;25.58;;;13.20;99.90;;;;;;4992196;28;20029;-86
2023/09/16 03:59:13;;;;;;;33.13;25.20;;;13.10;99.90;;;;;;4990985;28;20041;-86
2023/09/16 04:01:39;;;;;;;37.38;28.65;;;13.10;99.90;;;;;;4990317;28;20030;-86
2023/09/16 04:04:05;;;;;;;33.35;25.30;;;13.10;99.90;;;;;;4988734;28;20026;-86
2023/09/16 04:06:30;;;;;;;32.63;24.67;;;13.00;99.90;;;;;;4992017;28;20035;-86
2023/09/16 04:08:56;;;;;;;36.85;27.90;;;13.00;99.90;;;;;;4990346;28;20364;-87
2023/09/16 04:11:21;;;;;;;36.28;27.33;;;13.00;99.90;;;;;;4987708;28;20121;-87
2023/09/16 04:13:46;;;;;;;39.65;31.10;;;13.00;99.90;;;;;;4967536;28;20144;-87
2023/09/16 04:16:13;;;;;;;41.25;30.10;;;13.00;99.90;;;;;;4991130;28;20386;-87
2023/09/16 04:18:38;;;;;;;38.30;29.15;;;13.00;99.90;;;;;;4986302;28;20057;-86
2023/09/16 04:21:04;;;;;;;39.50;32.58;;;13.00;99.90;;;;;;4983806;28;20061;-86
2023/09/16 04:23:29;;;;;;;39.03;31.42;;;13.10;99.90;;;;;;4971293;28;20081;-86
2023/09/16 04:25:56;;;;;;;38.88;30.13;;;13.10;99.90;;;;;;4963092;28;20034;-86
2023/09/16 04:28:23;;;;;;;43.08;31.15;;;13.10;99.90;;;;;;4972938;28;20380;-87
2023/09/16 04:30:50;;;;;;;42.30;32.72;;;13.10;99.90;;;;;;4974731;28;20038;-86
2023/09/16 04:33:16;;;;;;;40.67;32.60;;;13.10;99.90;;;;;;4989673;28;20034;-87
2023/09/16 04:35:44;;;;;;;42.90;32.42;;;13.10;99.90;;;;;;4990538;28;20117;-86
2023/09/16 04:38:10;;;;;;;40.75;30.05;;;13.10;99.90;;;;;;4991054;28;20030;-86
2023/09/16 04:40:35;;;;;;;44.55;34.35;;;13.10;99.90;;;;;;4990680;28;20134;-86
2023/09/16 04:43:03;;;;;;;42.50;31.10;;;13.10;99.90;;;;;;4988840;28;20046;-87
2023/09/16 04:45:29;;;;;;;45.45;33.33;;;13.10;99.90;;;;;;4990745;28;20036;-86
2023/09/16 04:47:56;;;;;;;42.38;31.98;;;13.10;99.90;;;;;;4988014;28;20030;-86
2023/09/16 04:50:22;;;;;;;37.17;30.27;;;13.10;99.90;;;;;;4990202;28;20036;-86
2023/09/16 04:52:48;;;;;;;37.67;28.77;;;13.10;99.90;;;;;;4987883;28;20034;-87
2023/09/16 04:55:14;;;;;;;43.33;31.85;;;13.10;99.90;;;;;;4987797;28;20406;-86
2023/09/16 04:57:40;;;;;;;44.20;31.23;;;13.10;99.90;;;;;;4992527;28;20030;-87
2023/09/16 05:00:06;;;;;;;39.85;29.45;;;13.10;99.90;;;;;;4973162;28;20450;-86
2023/09/16 05:02:33;;;;;;;40.97;31.23;;;13.10;99.90;;;;;;4988475;28;20052;-87
2023/09/16 05:04:59;;;;;;;42.20;33.45;;;13.10;99.90;;;;;;4991170;28;20126;-87
2023/09/16 05:07:25;;;;;;;42.20;31.58;;;13.10;99.90;;;;;;4993095;28;20037;-87
2023/09/16 05:09:50;;;;;;;42.85;30.80;;;13.10;99.90;;;;;;4993433;28;20018;-87
2023/09/16 05:12:15;;;;;;;41.90;33.08;;;13.10;99.90;;;;;;4991966;28;20050;-87
2023/09/16 05:14:41;;;;;;;47.35;33.80;;;13.10;99.90;;;;;;4991803;28;20022;-86
2023/09/16 05:17:07;;;;;;;40.63;31.35;;;13.10;99.90;;;;;;4966709;28;20130;-86
2023/09/16 05:19:32;;;;;;;41.47;33.10;;;13.10;99.90;;;;;;4993059;28;20031;-87
2023/09/16 05:21:58;;;;;;;40.03;31.92;;;13.10;99.90;;;;;;4984333;28;20584;-86
2023/09/16 05:24:23;;;;;;;45.38;35.40;;;13.10;99.90;;;;;;4993061;28;20026;-86
2023/09/16 05:26:49;;;;;;;47.40;32.60;;;13.10;99.90;;;;;;4992213;28;20033;-87
2023/09/16 05:29:14;;;;;;;45.55;34.00;;;13.10;99.90;;;;;;4990793;28;20019;-86
2023/09/16 05:31:40;;;;;;;46.67;34.53;;;13.10;99.90;;;;;;4989672;28;20040;-86
2023/09/16 05:34:05;;;;;;;44.35;34.00;;;13.10;99.90;;;;;;4971178;28;20398;-86
2023/09/16 05:36:32;;;;;;;42.65;32.45;;;13.20;99.90;;;;;;4991225;28;20042;-87
2023/09/16 05:38:58;;;;;;;48.33;34.90;;;13.10;99.90;;;;;;4990940;28;20040;-87
2023/09/16 05:41:24;;;;;;;51.28;37.50;;;13.10;99.90;;;;;;4985969;28;20117;-87
2023/09/16 05:43:49;;;;;;;45.45;34.05;;;13.20;99.90;;;;;;4969335;28;20022;-87
2023/09/16 05:46:15;;;;;;;45.80;34.67;;;13.20;99.90;;;;;;4989026;28;20037;-87
2023/09/16 05:48:41;;;;;;;43.60;33.95;;;13.30;99.90;;;;;;4971606;28;20085;-87
2023/09/16 05:51:08;;;;;;;41.08;31.60;;;13.40;99.90;;;;;;4986133;28;20665;-87
2023/09/16 05:53:35;;;;;;;47.38;35.10;;;13.50;99.90;;;;;;4984512;28;20040;-87
2023/09/16 05:56:08;;;;;;;45.42;34.28;;;13.50;99.90;;;;;;4992005;28;20092;-87
2023/09/16 05:58:34;;;;;;;44.22;34.15;;;13.60;99.90;;;;;;4992985;28;20437;-87
2023/09/16 06:00:59;;;;;;;45.78;32.85;;;13.70;99.90;;;;;;4991419;28;20031;-86
2023/09/16 06:03:25;;;;;;;45.60;34.40;;;13.80;99.90;;;;;;4994533;28;20375;-87
2023/09/16 06:05:59;;;;;;;41.78;31.45;;;13.90;99.90;;;;;;4991787;28;20105;-87
2023/09/16 06:08:26;;;;;;;47.78;33.40;;;14.00;99.90;;;;;;4996058;28;20057;-86
2023/09/16 06:10:59;;;;;;;47.60;35.33;;;14.00;99.90;;;;;;4996085;28;20027;-86
2023/09/16 06:13:25;;;;;;;42.13;32.38;;;14.10;99.90;;;;;;4994590;28;20050;-86
2023/09/16 06:15:51;;;;;;;38.50;31.77;;;14.10;99.90;;;;;;4990275;28;20049;-87
2023/09/16 06:18:17;;;;;;;38.58;29.73;;;14.20;99.90;;;;;;4976680;28;20026;-87
2023/09/16 06:20:42;;;;;;;42.70;31.65;;;14.20;99.90;;;;;;4981644;28;20513;-87
2023/09/16 06:23:08;;;;;;;38.72;29.98;;;14.30;99.90;;;;;;4995133;28;20042;-86
2023/09/16 06:25:34;;;;;;;38.70;28.33;;;14.40;99.90;;;;;;4993088;28;20034;-87
2023/09/16 06:28:00;;;;;;;38.38;29.33;;;14.40;99.90;;;;;;4993616;28;20048;-87
2023/09/16 06:30:25;;;;;;;41.25;31.65;;;14.50;99.90;;;;;;4989782;28;20034;-87
2023/09/16 06:32:55;;;;;;;38.47;30.05;;;14.50;99.90;;;;;;4969029;28;20038;-87
2023/09/16 06:35:21;;;;;;;36.47;28.83;;;14.60;99.90;;;;;;4994956;28;20038;-87
2023/09/16 06:37:46;;;;;;;38.85;29.00;;;14.60;99.90;;;;;;4999541;28;20026;-86
2023/09/16 06:40:12;;;;;;;36.55;27.85;;;14.70;99.90;;;;;;4992337;28;20035;-87
2023/09/16 06:42:37;;;;;;;37.15;28.25;;;14.80;99.90;;;;;;4978750;28;20091;-86
2023/09/16 06:45:03;;;;;;;33.47;26.77;;;14.90;99.90;;;;;;4994995;28;20037;-86
2023/09/16 06:47:29;;;;;;;31.90;27.88;;;15.00;99.90;;;;;;4994883;28;20040;-86
2023/09/16 06:49:56;;;;;;;33.55;26.40;;;15.10;99.90;;;;;;4993466;28;20053;-86
2023/09/16 06:52:22;;;;;;;36.78;29.13;;;15.20;99.90;;;;;;4993744;28;20101;-86
2023/09/16 06:54:51;;;;;;;36.25;29.17;;;15.20;99.90;;;;;;4994661;28;20018;-86
2023/09/16 06:57:16;;;;;;;35.53;27.23;;;15.40;99.90;;;;;;5001229;28;20463;-86
2023/09/16 06:59:47;;;;;;;33.78;27.23;;;15.50;99.90;;;;;;4996959;28;20110;-86
2023/09/16 07:02:13;;;;;;;32.25;26.80;;;15.60;99.90;;;;;;4989530;28;20126;-85
2023/09/16 07:04:40;;;;;;;33.78;27.08;;;15.70;99.90;;;;;;4977363;28;20486;-85
2023/09/16 07:07:06;;;;;;;31.90;25.70;;;15.80;99.90;;;;;;4974273;28;20030;-85
2023/09/16 07:09:32;;;;;;;32.28;25.60;;;16.00;99.90;;;;;;4971805;28;20030;-88
2023/09/16 07:11:57;;;;;;;36.92;26.15;;;16.10;99.90;;;;;;4985533;28;20039;-88
2023/09/16 07:14:23;;;;;;;31.05;23.85;;;16.20;99.90;;;;;;4985143;28;20113;-87
2023/09/16 07:16:48;;;;;;;28.27;22.83;;;16.30;99.90;;;;;;4996146;28;20034;-88
2023/09/16 07:19:14;;;;;;;28.15;22.63;;;16.50;99.90;;;;;;4994253;28;20018;-89
2023/09/16 07:21:40;;;;;;;27.20;22.70;;;16.60;99.90;;;;;;4979895;28;20474;-90
2023/09/16 07:24:06;;;;;;;26.23;22.55;;;16.80;99.90;;;;;;4980117;28;20037;-89
2023/09/16 07:26:34;;;;;;;26.27;20.05;;;16.90;99.90;;;;;;4979610;28;20022;-88
2023/09/16 07:29:00;;;;;;;22.60;19.35;;;17.10;99.90;;;;;;4989117;28;20031;-89
2023/09/16 07:31:25;;;;;;;23.98;20.33;;;17.10;99.90;;;;;;4980013;28;20129;-89
2023/09/16 07:33:52;;;;;;;24.65;20.95;;;17.20;99.90;;;;;;4996321;28;20030;-89
2023/09/16 07:36:17;;;;;;;22.98;19.52;;;17.40;99.90;;;;;;4996017;28;20024;-88
2023/09/16 07:38:43;;;;;;;22.67;17.70;;;17.50;99.90;;;;;;4991818;28;20038;-89
2023/09/16 07:41:09;;;;;;;21.20;16.42;;;17.70;99.90;;;;;;4990420;28;20026;-89
2023/09/16 07:43:35;;;;;;;22.42;18.90;;;17.80;99.90;;;;;;4971465;28;20034;-87
2023/09/16 07:46:00;;;;;;;23.38;19.20;;;17.90;99.90;;;;;;4969899;28;20035;-88
2023/09/16 07:48:26;;;;;;;21.40;18.88;;;18.10;99.90;;;;;;4991906;28;20045;-88
2023/09/16 07:50:51;;;;;;;21.10;15.98;;;18.40;99.90;;;;;;4972537;28;20042;-89
2023/09/16 07:53:17;;;;;;;17.60;14.48;;;18.60;99.90;;;;;;4974606;28;20181;-87
2023/09/16 07:55:42;;;;;;;17.42;13.80;;;18.90;99.90;;;;;;4992249;28;20429;-87
2023/09/16 07:58:08;;;;;;;19.17;14.65;;;19.10;99.90;;;;;;4989469;28;20037;-87
2023/09/16 08:00:34;;;;;;;16.02;13.23;;;19.20;99.90;;;;;;4993560;28;20029;-87
2023/09/16 08:02:59;;;;;;;17.45;13.82;;;19.40;99.90;;;;;;4987817;28;20030;-87
2023/09/16 08:05:26;;;;;;;14.65;12.27;;;19.50;99.90;;;;;;4990092;28;20030;-86
2023/09/16 08:07:52;;;;;;;16.02;12.95;;;19.80;99.90;;;;;;4968656;28;20023;-88
2023/09/16 08:10:18;;;;;;;15.00;11.13;;;19.80;99.90;;;;;;4975411;28;20049;-88
2023/09/16 08:12:43;;;;;;;14.95;12.00;;;19.90;99.90;;;;;;4987605;28;20048;-88
2023/09/16 08:15:09;;;;;;;15.82;10.63;;;20.10;99.90;;;;;;4972225;28;20034;-88
2023/09/16 08:17:37;;;;;;;13.60;11.35;;;20.10;99.90;;;;;;4986364;28;20027;-88
2023/09/16 08:20:04;;;;;;;16.13;9.80;;;20.40;99.90;;;;;;4975979;28;20034;-88
2023/09/16 08:22:30;;;;;;;10.95;9.18;;;20.50;99.90;;;;;;4972960;28;20018;-88
2023/09/16 08:24:55;;;;;;;11.32;8.90;;;20.50;99.90;;;;;;4984436;28;20052;-88
2023/09/16 08:27:21;;;;;;;10.80;8.50;;;20.60;99.90;;;;;;4987730;28;20116;-87
2023/09/16 08:29:49;;;;;;;13.10;9.52;;;20.80;99.90;;;;;;4976332;28;20105;-87
2023/09/16 08:32:15;;;;;;;11.75;9.55;;;20.80;99.90;;;;;;4989307;28;20438;-88
2023/09/16 08:34:41;;;;;;;13.18;8.85;;;20.90;99.90;;;;;;4966389;28;20023;-88
2023/09/16 08:37:06;;;;;;;13.43;8.25;;;21.00;99.90;;;;;;4989920;28;20022;-88
2023/09/16 08:39:32;;;;;;;12.90;8.30;;;21.00;99.90;;;;;;4976231;28;20023;-88
2023/09/16 08:42:11;;;;;;;9.40;8.05;;;21.10;99.90;;;;;;4992395;28;20041;-89
2023/09/16 08:44:41;;;;;;;9.80;7.65;;;21.20;99.90;;;;;;4977683;28;20056;-89
2023/09/16 08:47:14;;;;;;;11.07;8.75;;;21.20;99.90;;;;;;4983766;28;20049;-87
2023/09/16 08:49:44;;;;;;;12.60;8.05;;;21.20;99.90;;;;;;4991818;28;20026;-87
2023/09/16 08:52:14;;;;;;;8.43;6.93;;;21.30;99.90;;;;;;4989838;28;20100;-87
2023/09/16 08:54:41;;;;;;;9.65;6.80;;;21.30;99.90;;;;;;4991137;28;20530;-88
2023/09/16 08:57:09;;;;;;;13.85;7.38;;;21.40;99.90;;;;;;4989035;28;20121;-88
2023/09/16 08:59:36;;;;;;;12.45;8.40;;;21.50;99.90;;;;;;4994650;28;20022;-87
2023/09/16 09:02:02;;;;;;;9.00;7.10;;;21.50;99.90;;;;;;4989358;28;20030;-87
2023/09/16 09:04:28;;;;;;;9.80;7.57;;;21.60;99.90;;;;;;4974260;28;20486;-86
2023/09/16 09:06:55;;;;;;;10.02;7.90;;;21.70;99.90;;;;;;4992288;28;20514;-87
2023/09/16 09:09:21;;;;;;;11.85;7.40;;;21.80;99.90;;;;;;4976164;28;20034;-86
2023/09/16 09:11:47;;;;;;;10.45;8.15;;;21.80;99.90;;;;;;4992450;28;20038;-86
2023/09/16 09:14:14;;;;;;;11.30;7.15;;;21.80;99.90;;;;;;4978541;28;20038;-84
2023/09/16 09:16:43;;;;;;;11.00;7.53;;;21.80;99.90;;;;;;4996232;28;20028;-87
2023/09/16 09:19:11;;;;;;;10.68;7.28;;;21.80;99.90;;;;;;4974058;28;20398;-87
2023/09/16 09:21:37;;;;;;;9.32;6.03;;;21.80;99.90;;;;;;4976296;28;20026;-87
2023/09/16 09:24:02;;;;;;;9.20;6.00;;;21.90;99.90;;;;;;4991601;28;20031;-87
2023/09/16 09:26:28;;;;;;;7.47;5.60;;;21.90;99.90;;;;;;4993695;28;20052;-86
2023/09/16 09:28:53;;;;;;;9.45;6.45;;;22.00;99.90;;;;;;4984885;28;20088;-87
2023/09/16 09:31:19;;;;;;;10.93;6.55;;;22.00;99.90;;;;;;4989446;28;20022;-86
2023/09/16 09:33:48;;;;;;;10.20;7.57;;;22.10;99.90;;;;;;4975323;28;20100;-87
2023/09/16 09:36:18;;;;;;;10.13;6.80;;;22.20;99.90;;;;;;4970605;28;20490;-87
2023/09/16 09:38:45;;;;;;;8.90;6.20;;;22.20;99.90;;;;;;4991685;28;20030;-87
2023/09/16 09:41:11;;;;;;;8.32;5.47;;;22.30;99.90;;;;;;4975548;28;20026;-87
2023/09/16 09:43:37;;;;;;;7.40;5.22;;;22.50;99.90;;;;;;4992947;28;20060;-87
2023/09/16 09:46:03;;;;;;;13.00;6.32;;;22.60;99.90;;;;;;4991120;28;20030;-86
2023/09/16 09:48:33;;;;;;;9.85;4.95;;;22.70;99.90;;;;;;4989114;28;20036;-87
2023/09/16 09:51:00;;;;;;;9.18;5.43;;;22.80;99.90;;;;;;4975185;28;20117;-86
2023/09/16 09:53:26;;;;;;;7.90;4.75;;;22.90;99.90;;;;;;4989337;28;20042;-86
2023/09/16 09:55:52;;;;;;;10.57;5.30;;;22.90;99.90;;;;;;4967793;28;20041;-85
2023/09/16 09:58:18;;;;;;;7.65;5.00;;;22.90;99.90;;;;;;4972531;28;20453;-84
2023/09/16 10:00:49;;;;;;;6.35;4.65;;;23.00;99.90;;;;;;4991727;28;20037;-87
2023/09/16 10:03:17;;;;;;;8.98;5.03;;;23.00;99.90;;;;;;4988730;28;20037;-89
2023/09/16 10:05:42;;;;;;;6.60;4.55;;;23.10;99.90;;;;;;4991536;28;20384;-90
2023/09/16 10:08:09;;;;;;;5.75;4.40;;;23.20;99.90;;;;;;4991090;28;20046;-90
2023/09/16 10:10:36;;;;;;;6.90;4.25;;;23.30;99.90;;;;;;4993501;28;20054;-88
2023/09/16 10:13:02;;;;;;;5.38;4.32;;;23.40;99.90;;;;;;4992141;28;20402;-87
2023/09/16 10:15:32;;;;;;;6.38;4.10;;;23.40;99.90;;;;;;4988244;28;20019;-87
2023/09/16 10:17:58;;;;;;;7.72;4.60;;;23.50;99.90;;;;;;4983105;28;20037;-88
2023/09/16 10:20:23;;;;;;;5.70;4.22;;;23.60;99.90;;;;;;4991986;28;20026;-88
2023/09/16 10:22:50;;;;;;;4.25;2.65;;;23.50;99.90;;;;;;4973886;28;20054;-89
2023/09/16 10:25:19;;;;;;;3.40;2.42;;;23.60;99.90;;;;;;4975580;28;20030;-89
2023/09/16 10:27:56;;;;;;;5.38;2.90;;;23.60;99.90;;;;;;4975893;28;20118;-90
2023/09/16 10:30:22;;;;;;;5.45;3.42;;;23.70;99.90;;;;;;4991032;28;20031;-87
2023/09/16 10:32:48;;;;;;;4.82;3.17;;;23.70;99.90;;;;;;4975424;28;20058;-88
2023/09/16 10:35:14;;;;;;;5.95;3.25;;;23.80;99.90;;;;;;4987047;28;20533;-88
2023/09/16 10:37:41;;;;;;;4.93;3.15;;;23.90;99.90;;;;;;4989645;28;20080;-85
2023/09/16 10:40:09;;;;;;;6.60;4.32;;;24.00;99.90;;;;;;4986840;28;20026;-86
2023/09/16 10:42:36;;;;;;;5.95;3.53;;;24.00;99.90;;;;;;4973329;28;20133;-86
2023/09/16 10:45:03;;;;;;;5.70;3.42;;;24.00;99.90;;;;;;4992128;28;20027;-86
2023/09/16 10:47:30;;;;;;;3.85;2.78;;;24.10;99.90;;;;;;4994244;28;20078;-86
2023/09/16 10:49:56;;;;;;;4.10;3.03;;;24.10;99.90;;;;;;4994445;28;20027;-86
2023/09/16 10:52:33;;;;;;;4.43;3.45;;;24.10;99.90;;;;;;4989703;28;20376;-86
2023/09/16 10:55:24;;;;;;;5.53;3.70;;;24.20;99.90;;;;;;4987594;28;20558;-89
2023/09/16 10:58:15;;;;;;;6.05;4.53;;;24.20;99.90;;;;;;4975076;28;20022;-89
2023/09/16 11:00:48;;;;;;;5.05;3.10;;;24.20;99.90;;;;;;4984583;28;20068;-88
2023/09/16 11:03:14;;;;;;;5.07;3.42;;;24.20;99.90;;;;;;4992948;28;20041;-87
2023/09/16 11:05:40;;;;;;;6.80;4.55;;;24.30;99.90;;;;;;4993414;28;20034;-87
2023/09/16 11:08:06;;;;;;;7.07;4.43;;;24.20;99.90;;;;;;4993138;28;20382;-87
2023/09/16 11:10:33;;;;;;;4.25;3.30;;;24.30;99.90;;;;;;4992198;28;20045;-87
2023/09/16 11:13:00;;;;;;;4.78;3.33;;;24.30;99.90;;;;;;4993450;28;20300;-88
2023/09/16 11:15:34;;;;;;;4.63;3.20;;;24.40;99.90;;;;;;4991489;28;20509;-87
2023/09/16 11:18:04;;;;;;;4.75;3.33;;;24.50;99.90;;;;;;4992031;28;20443;-87
2023/09/16 11:20:33;;;;;;;6.45;3.80;;;24.50;99.90;;;;;;4992281;28;20030;-85
2023/09/16 11:23:06;;;;;;;4.80;2.80;;;24.70;99.90;;;;;;4994936;28;20113;-86
2023/09/16 11:25:34;;;;;;;5.10;3.45;;;24.80;99.90;;;;;;4994555;28;20568;-84
2023/09/16 11:28:02;;;;;;;5.38;3.80;;;24.90;99.90;;;;;;4993261;28;20039;-86
2023/09/16 11:30:31;;;;;;;3.75;2.65;;;24.70;99.90;;;;;;4987207;28;20117;-86
2023/09/16 11:32:57;;;;;;;4.90;2.90;;;24.90;99.90;;;;;;4993163;28;20030;-86
2023/09/16 11:35:23;;;;;;;7.00;3.58;;;24.80;99.90;;;;;;4993736;28;20089;-86
2023/09/16 11:37:49;;;;;;;4.22;2.83;;;24.90;99.90;;;;;;4993259;28;20564;-85
2023/09/16 11:40:15;;;;;;;4.10;3.13;;;24.90;99.90;;;;;;4994265;28;20030;-85
2023/09/16 11:42:41;;;;;;;4.25;2.90;;;25.00;99.90;;;;;;4993279;28;20038;-86
2023/09/16 11:45:08;;;;;;;6.13;3.65;;;25.10;99.90;;;;;;4993519;28;20517;-85
2023/09/16 11:47:34;;;;;;;5.07;2.72;;;25.00;99.40;;;;;;4977458;28;20034;-86
2023/09/16 11:49:59;;;;;;;5.03;3.47;;;24.90;99.50;;;;;;4992613;28;20463;-85
2023/09/16 11:52:25;;;;;;;6.45;3.55;;;25.00;99.90;;;;;;4972794;28;20137;-86
2023/09/16 11:54:53;;;;;;;4.70;2.50;;;25.00;99.80;;;;;;4990733;28;20085;-86
2023/09/16 11:57:19;;;;;;;4.30;2.78;;;25.10;99.90;;;;;;4994447;28;20530;-86
2023/09/16 11:59:46;;;;;;;4.28;3.45;;;25.00;99.20;;;;;;4993421;28;20076;-86
2023/09/16 12:02:12;;;;;;;4.05;2.47;;;25.00;99.20;;;;;;4977275;28;20452;-86
2023/09/16 12:04:39;;;;;;;6.95;4.00;;;25.00;99.50;;;;;;4992329;28;20113;-86
2023/09/16 12:07:04;;;;;;;4.38;2.92;;;25.00;99.20;;;;;;4976555;28;20116;-86
2023/09/16 12:09:32;;;;;;;6.50;3.33;;;25.00;99.40;;;;;;4993405;28;20068;-86
2023/09/16 12:11:58;;;;;;;3.83;3.28;;;25.00;99.30;;;;;;4980414;28;20061;-86
2023/09/16 12:14:23;;;;;;;3.90;2.97;;;25.00;99.10;;;;;;4966789;28;20037;-86
2023/09/16 12:16:52;;;;;;;4.55;3.70;;;25.00;99.50;;;;;;4992699;28;20049;-85
2023/09/16 12:19:17;;;;;;;4.90;3.35;;;25.00;99.70;;;;;;4992917;28;20023;-85
2023/09/16 12:21:47;;;;;;;6.78;4.65;;;25.10;99.60;;;;;;4992971;28;20121;-85
2023/09/16 12:24:17;;;;;;;4.25;3.03;;;25.20;99.00;;;;;;4993754;28;20483;-85
2023/09/16 12:26:44;;;;;;;6.50;4.60;;;25.20;99.10;;;;;;4992696;28;20033;-85
2023/09/16 12:29:10;;;;;;;6.45;3.90;;;25.20;98.90;;;;;;4992424;28;20097;-85
2023/09/16 12:31:36;;;;;;;5.13;3.17;;;25.30;99.10;;;;;;4987922;28;20490;-85